createdAt,value
2023-05-29T00:01:01.487Z,12.30
2023-05-29T00:03:28.450Z,12.20
2023-05-29T00:05:55.540Z,12.20
2023-05-29T00:08:22.732Z,12.30
2023-05-29T00:10:49.575Z,12.20
2023-05-29T00:13:16.500Z,12.20
2023-05-29T00:15:43.355Z,12.10
2023-05-29T00:18:10.281Z,12.20
2023-05-29T00:20:37.193Z,12.10
2023-05-29T00:23:05.480Z,12.10
2023-05-29T00:25:32.783Z,12.10
2023-05-29T00:28:00.349Z,12.10
2023-05-29T00:30:27.238Z,12.00
2023-05-29T00:32:55.336Z,12.00
2023-05-29T00:35:22.342Z,12.00
2023-05-29T00:37:49.245Z,12.10
2023-05-29T00:40:16.200Z,12.10
2023-05-29T00:42:43.428Z,12.00
2023-05-29T00:45:11.730Z,12.00
2023-05-29T00:47:38.706Z,11.90
2023-05-29T00:50:06.722Z,11.90
2023-05-29T00:52:34.042Z,11.90
2023-05-29T00:55:04.470Z,11.90
2023-05-29T00:57:32.517Z,11.90
2023-05-29T01:00:01.116Z,11.90
2023-05-29T01:02:31.106Z,11.80
2023-05-29T01:04:58.477Z,11.80
2023-05-29T01:07:25.804Z,11.90
2023-05-29T01:09:52.654Z,11.70
2023-05-29T01:12:31.337Z,11.70
2023-05-29T01:15:07.997Z,11.60
2023-05-29T01:18:06.266Z,11.60
2023-05-29T01:20:43.067Z,11.60
2023-05-29T01:23:46.928Z,11.60
2023-05-29T01:26:47.749Z,11.60
2023-05-29T01:29:21.113Z,11.60
2023-05-29T01:31:52.459Z,11.60
2023-05-29T01:34:19.598Z,11.60
2023-05-29T01:36:47.530Z,11.50
2023-05-29T01:39:15.418Z,11.50
2023-05-29T01:41:45.565Z,11.50
2023-05-29T01:44:14.303Z,11.40
2023-05-29T01:46:44.877Z,11.40
2023-05-29T01:49:13.486Z,11.50
2023-05-29T01:51:44.126Z,11.40
2023-05-29T01:54:11.767Z,11.40
2023-05-29T01:56:39.687Z,11.40
2023-05-29T01:59:07.327Z,11.30
2023-05-29T02:01:34.734Z,11.20
2023-05-29T02:04:01.826Z,11.30
2023-05-29T02:06:28.745Z,11.30
2023-05-29T02:08:55.788Z,11.20
2023-05-29T02:11:22.839Z,11.30
2023-05-29T02:13:49.882Z,11.10
2023-05-29T02:16:18.323Z,11.20
2023-05-29T02:18:45.399Z,11.20
2023-05-29T02:21:13.511Z,11.20
2023-05-29T02:23:40.572Z,11.10
2023-05-29T02:26:07.705Z,11.20
2023-05-29T02:28:34.554Z,11.20
2023-05-29T02:31:01.450Z,11.10
2023-05-29T02:33:28.327Z,11.10
2023-05-29T02:35:55.207Z,11.10
2023-05-29T02:38:22.202Z,11.20
2023-05-29T02:40:49.048Z,11.20
2023-05-29T02:43:15.906Z,11.10
2023-05-29T02:45:42.818Z,11.10
2023-05-29T02:48:09.750Z,11.00
2023-05-29T02:50:37.802Z,11.00
2023-05-29T02:53:04.756Z,10.90
2023-05-29T02:55:33.340Z,11.00
2023-05-29T02:58:02.194Z,10.80
2023-05-29T03:00:29.689Z,10.90
2023-05-29T03:02:58.856Z,10.90
2023-05-29T03:05:26.804Z,10.90
2023-05-29T03:07:54.052Z,10.90
2023-05-29T03:10:21.586Z,10.80
2023-05-29T03:12:48.508Z,10.80
2023-05-29T03:15:15.729Z,10.80
2023-05-29T03:17:42.793Z,10.80
2023-05-29T03:20:14.491Z,10.80
2023-05-29T03:22:41.653Z,10.80
2023-05-29T03:25:10.253Z,10.80
2023-05-29T03:27:37.889Z,10.80
2023-05-29T03:30:14.509Z,10.70
2023-05-29T03:32:43.146Z,10.80
2023-05-29T03:35:09.998Z,10.80
2023-05-29T03:37:39.912Z,10.80
2023-05-29T03:40:07.998Z,10.80
2023-05-29T03:42:35.507Z,10.80
2023-05-29T03:45:03.084Z,10.80
2023-05-29T03:47:31.686Z,10.80
2023-05-29T03:49:58.505Z,10.70
2023-05-29T03:52:25.422Z,10.70
2023-05-29T03:54:55.024Z,10.70
2023-05-29T03:57:21.890Z,10.70
2023-05-29T03:59:50.444Z,10.60
2023-05-29T04:02:19.984Z,10.80
2023-05-29T04:04:47.100Z,10.80
2023-05-29T04:07:13.908Z,10.80
2023-05-29T04:09:40.701Z,10.80
2023-05-29T04:12:09.962Z,10.80
2023-05-29T04:14:36.996Z,10.70
2023-05-29T04:17:04.092Z,10.90
2023-05-29T04:19:31.127Z,10.90
2023-05-29T04:21:58.032Z,11.00
2023-05-29T04:24:25.480Z,11.00
2023-05-29T04:26:53.552Z,10.90
2023-05-29T04:29:20.820Z,11.00
2023-05-29T04:31:48.266Z,11.10
2023-05-29T04:34:17.553Z,11.10
2023-05-29T04:36:46.970Z,11.00
2023-05-29T04:39:14.299Z,11.10
2023-05-29T04:41:44.958Z,11.10
2023-05-29T04:44:16.109Z,11.10
2023-05-29T04:46:48.065Z,11.20
2023-05-29T04:49:15.512Z,11.20
2023-05-29T04:51:42.477Z,11.30
2023-05-29T04:54:11.818Z,11.30
2023-05-29T04:56:41.146Z,11.30
2023-05-29T04:59:10.104Z,11.40
2023-05-29T05:01:37.163Z,11.50
2023-05-29T05:04:04.487Z,11.60
2023-05-29T05:06:31.486Z,11.60
2023-05-29T05:08:59.214Z,11.70
2023-05-29T05:11:26.110Z,11.60
2023-05-29T05:13:53.147Z,11.80
2023-05-29T05:16:20.385Z,11.90
2023-05-29T05:18:47.878Z,11.90
2023-05-29T05:21:14.807Z,12.10
2023-05-29T05:23:56.380Z,12.00
2023-05-29T05:26:27.175Z,12.00
2023-05-29T05:28:54.344Z,12.20
2023-05-29T05:31:24.205Z,12.70
2023-05-29T05:33:51.540Z,13.40
2023-05-29T05:36:18.780Z,14.00
2023-05-29T05:38:45.747Z,14.20
2023-05-29T05:41:12.683Z,14.40
2023-05-29T05:43:41.213Z,15.10
2023-05-29T05:46:12.269Z,15.20
2023-05-29T05:48:40.953Z,15.10
2023-05-29T05:51:07.998Z,15.40
2023-05-29T05:53:34.930Z,15.60
2023-05-29T05:56:02.031Z,15.70
2023-05-29T05:58:29.538Z,15.50
2023-05-29T06:00:58.512Z,15.70
2023-05-29T06:03:27.510Z,15.60
2023-05-29T06:06:01.944Z,16.10
2023-05-29T06:08:29.134Z,16.40
2023-05-29T06:10:57.335Z,16.80
2023-05-29T06:13:24.537Z,16.90
2023-05-29T06:15:57.281Z,16.60
2023-05-29T06:18:24.906Z,16.90
2023-05-29T06:20:51.930Z,16.60
2023-05-29T06:23:18.892Z,16.70
2023-05-29T06:25:45.781Z,17.30
2023-05-29T06:28:12.673Z,17.50
2023-05-29T06:30:40.697Z,18.00
2023-05-29T06:33:08.542Z,17.70
2023-05-29T06:35:37.959Z,17.70
2023-05-29T06:38:04.945Z,17.60
2023-05-29T06:40:31.936Z,17.50
2023-05-29T06:42:58.958Z,16.40
2023-05-29T06:45:46.241Z,17.20
2023-05-29T06:48:13.095Z,17.30
2023-05-29T06:50:41.041Z,17.70
2023-05-29T06:53:31.405Z,16.90
2023-05-29T06:55:58.276Z,16.90
2023-05-29T06:58:25.295Z,17.50
2023-05-29T07:00:52.299Z,18.40
2023-05-29T07:03:30.153Z,18.00
2023-05-29T07:05:57.521Z,18.00
2023-05-29T07:08:25.729Z,18.30
2023-05-29T07:10:53.958Z,18.60
2023-05-29T07:13:21.837Z,19.00
2023-05-29T07:15:52.147Z,18.50
2023-05-29T07:18:23.507Z,18.60
2023-05-29T07:20:51.433Z,17.80
2023-05-29T07:23:20.568Z,18.40
2023-05-29T07:25:47.643Z,18.70
2023-05-29T07:28:22.229Z,18.70
2023-05-29T07:30:50.261Z,18.50
2023-05-29T07:33:17.158Z,18.70
2023-05-29T07:35:45.096Z,18.30
2023-05-29T07:38:12.063Z,18.70
2023-05-29T07:40:42.554Z,18.10
2023-05-29T07:43:20.503Z,18.40
2023-05-29T07:45:53.003Z,18.60
2023-05-29T07:48:22.958Z,19.20
2023-05-29T07:50:51.886Z,19.80
2023-05-29T07:53:19.204Z,19.40
2023-05-29T07:55:47.762Z,19.20
2023-05-29T07:58:14.719Z,18.30
2023-05-29T08:00:42.051Z,18.80
2023-05-29T08:03:09.748Z,18.70
2023-05-29T08:05:57.366Z,18.30
2023-05-29T08:08:25.033Z,18.60
2023-05-29T08:10:51.883Z,18.80
2023-05-29T08:13:18.726Z,19.10
2023-05-29T08:15:46.740Z,19.30
2023-05-29T08:18:13.594Z,18.90
2023-05-29T08:20:41.124Z,19.10
2023-05-29T08:23:08.020Z,19.40
2023-05-29T08:25:34.781Z,19.30
2023-05-29T08:28:01.562Z,19.40
2023-05-29T08:30:28.385Z,19.30
2023-05-29T08:32:55.232Z,18.40
2023-05-29T08:35:22.068Z,17.90
2023-05-29T08:37:48.905Z,18.10
2023-05-29T08:40:15.887Z,18.00
2023-05-29T08:42:58.946Z,17.90
2023-05-29T08:45:26.172Z,18.10
2023-05-29T08:47:54.999Z,17.90
2023-05-29T08:50:23.153Z,17.50
2023-05-29T08:52:51.055Z,17.70
2023-05-29T08:55:18.289Z,17.80
2023-05-29T08:57:45.797Z,17.90
2023-05-29T09:00:13.684Z,17.70
2023-05-29T09:02:42.164Z,17.50
2023-05-29T09:05:11.006Z,18.20
2023-05-29T09:07:41.747Z,18.20
2023-05-29T09:10:11.064Z,18.40
2023-05-29T09:12:38.259Z,17.90
2023-05-29T09:15:19.651Z,18.10
2023-05-29T09:17:55.993Z,18.20
2023-05-29T09:20:24.984Z,17.90
2023-05-29T09:22:55.770Z,17.90
2023-05-29T09:25:27.853Z,17.60
2023-05-29T09:28:03.993Z,17.70
2023-05-29T09:30:42.404Z,18.10
2023-05-29T09:33:12.856Z,18.10
2023-05-29T09:35:46.401Z,17.80
2023-05-29T09:38:24.790Z,17.80
2023-05-29T09:41:06.953Z,17.80
2023-05-29T09:43:34.737Z,18.30
2023-05-29T09:46:03.226Z,18.80
2023-05-29T09:48:31.970Z,18.80
2023-05-29T09:50:59.300Z,18.60
2023-05-29T09:53:29.935Z,18.50
2023-05-29T09:56:00.311Z,18.80
2023-05-29T09:58:28.207Z,18.10
2023-05-29T10:00:55.085Z,18.60
2023-05-29T10:03:25.389Z,19.20
2023-05-29T10:05:58.391Z,19.40
2023-05-29T10:08:29.072Z,19.10
2023-05-29T10:11:05.265Z,18.50
2023-05-29T10:13:41.485Z,18.40
2023-05-29T10:16:16.442Z,18.40
2023-05-29T10:18:58.314Z,18.00
2023-05-29T10:21:29.487Z,18.10
2023-05-29T10:23:58.965Z,18.80
2023-05-29T10:26:28.350Z,19.00
2023-05-29T10:29:20.296Z,18.40
2023-05-29T10:32:24.140Z,18.90
2023-05-29T10:35:26.499Z,18.90
2023-05-29T10:38:10.081Z,19.00
2023-05-29T10:40:37.026Z,18.60
2023-05-29T10:43:03.920Z,19.10
2023-05-29T10:45:33.781Z,19.00
2023-05-29T10:48:29.605Z,18.90
2023-05-29T10:50:57.212Z,18.60
2023-05-29T10:53:31.899Z,19.00
2023-05-29T10:56:02.169Z,18.90
2023-05-29T10:58:31.204Z,19.40
2023-05-29T11:00:59.849Z,19.50
2023-05-29T11:03:32.784Z,19.40
2023-05-29T11:06:06.875Z,19.30
2023-05-29T11:08:59.763Z,19.10
2023-05-29T11:11:29.320Z,19.10
2023-05-29T11:14:01.618Z,19.30
2023-05-29T11:16:31.389Z,19.20
2023-05-29T11:19:01.100Z,19.30
2023-05-29T11:21:51.239Z,19.40
2023-05-29T11:24:24.927Z,19.10
2023-05-29T11:26:59.147Z,19.30
2023-05-29T11:29:29.833Z,19.60
2023-05-29T11:32:04.160Z,19.50
2023-05-29T11:34:33.727Z,19.80
2023-05-29T11:37:02.585Z,19.30
2023-05-29T11:39:30.125Z,19.70
2023-05-29T11:41:57.303Z,19.60
2023-05-29T11:44:27.540Z,19.80
2023-05-29T11:47:06.874Z,20.00
2023-05-29T11:49:36.012Z,20.20
2023-05-29T11:54:39.309Z,19.60
2023-05-29T11:57:06.953Z,19.10
2023-05-29T11:59:34.490Z,19.40
2023-05-29T12:02:05.019Z,19.50
2023-05-29T12:04:31.946Z,19.60
2023-05-29T12:06:59.101Z,19.80
2023-05-29T12:09:30.745Z,19.80
2023-05-29T12:12:05.381Z,19.80
2023-05-29T12:14:33.814Z,19.20
2023-05-29T12:17:00.945Z,19.30
2023-05-29T12:19:28.654Z,19.30
2023-05-29T12:21:55.545Z,19.30
2023-05-29T12:24:26.880Z,19.00
2023-05-29T12:26:59.208Z,19.20
2023-05-29T12:29:34.627Z,19.40
2023-05-29T12:32:01.730Z,19.30
2023-05-29T12:34:38.844Z,19.50
2023-05-29T12:37:13.607Z,19.80
2023-05-29T12:39:41.609Z,19.80
2023-05-29T12:42:08.826Z,19.60
2023-05-29T12:44:38.163Z,19.50
2023-05-29T12:47:05.306Z,19.30
2023-05-29T12:49:37.265Z,19.40
2023-05-29T12:52:08.749Z,19.70
2023-05-29T12:54:35.884Z,19.40
2023-05-29T12:57:02.914Z,19.40
2023-05-29T12:59:29.754Z,19.40
2023-05-29T13:01:56.685Z,19.60
2023-05-29T13:04:24.222Z,19.50
2023-05-29T13:06:51.035Z,19.30
2023-05-29T13:09:17.936Z,19.00
2023-05-29T13:11:44.796Z,19.30
2023-05-29T13:14:11.597Z,19.50
2023-05-29T13:16:38.504Z,20.10
2023-05-29T13:19:06.610Z,19.20
2023-05-29T13:21:33.514Z,19.00
2023-05-29T13:24:00.413Z,19.40
2023-05-29T13:26:27.891Z,19.60
2023-05-29T13:28:54.893Z,19.40
2023-05-29T13:31:22.186Z,19.30
2023-05-29T13:33:49.259Z,19.50
2023-05-29T13:36:16.159Z,19.80
2023-05-29T13:38:43.170Z,19.40
2023-05-29T13:41:09.969Z,19.60
2023-05-29T13:43:44.508Z,19.20
2023-05-29T13:46:13.612Z,19.60
2023-05-29T13:48:40.610Z,19.70
2023-05-29T13:51:07.593Z,19.80
2023-05-29T13:53:34.668Z,19.50
2023-05-29T13:56:01.517Z,19.50
2023-05-29T13:58:28.302Z,19.70
2023-05-29T14:00:55.493Z,19.40
2023-05-29T14:03:25.219Z,19.30
2023-05-29T14:05:52.202Z,19.70
2023-05-29T14:08:19.160Z,20.10
2023-05-29T14:10:46.139Z,19.20
2023-05-29T14:13:13.014Z,19.20
2023-05-29T14:15:41.155Z,19.20
2023-05-29T14:18:09.304Z,19.00
2023-05-29T14:20:36.598Z,19.10
2023-05-29T14:23:04.098Z,19.30
2023-05-29T14:25:30.890Z,19.30
2023-05-29T14:27:57.741Z,19.10
2023-05-29T14:30:24.753Z,19.20
2023-05-29T14:32:51.766Z,19.30
2023-05-29T14:35:18.673Z,19.30
2023-05-29T14:37:45.457Z,19.40
2023-05-29T14:40:12.549Z,19.30
2023-05-29T14:42:39.425Z,19.70
2023-05-29T14:45:08.400Z,19.70
2023-05-29T14:47:36.356Z,19.50
2023-05-29T14:50:03.686Z,19.90
2023-05-29T14:52:31.019Z,19.80
2023-05-29T14:54:58.119Z,19.90
2023-05-29T14:57:25.033Z,19.30
2023-05-29T14:59:51.835Z,19.20
2023-05-29T15:02:18.635Z,19.00
2023-05-29T15:04:45.818Z,18.80
2023-05-29T15:07:12.744Z,19.20
2023-05-29T15:09:39.552Z,19.00
2023-05-29T15:12:08.206Z,19.30
2023-05-29T15:14:36.037Z,19.30
2023-05-29T15:17:03.376Z,19.50
2023-05-29T15:19:30.369Z,19.40
2023-05-29T15:21:58.374Z,19.20
2023-05-29T15:24:25.309Z,19.40
2023-05-29T15:26:52.250Z,19.50
2023-05-29T15:29:19.215Z,19.50
2023-05-29T15:31:46.151Z,19.30
2023-05-29T15:34:13.052Z,19.40
2023-05-29T15:36:39.893Z,18.80
2023-05-29T15:39:07.228Z,18.60
2023-05-29T15:41:34.097Z,19.00
2023-05-29T15:44:00.902Z,19.20
2023-05-29T15:46:31.224Z,19.00
2023-05-29T15:48:58.371Z,18.70
2023-05-29T15:51:25.702Z,18.90
2023-05-29T15:53:52.915Z,19.00
2023-05-29T15:56:20.496Z,18.90
2023-05-29T15:58:47.320Z,19.00
2023-05-29T16:01:14.160Z,19.00
2023-05-29T16:03:41.036Z,18.60
2023-05-29T16:06:08.159Z,18.90
2023-05-29T16:08:35.072Z,18.70
2023-05-29T16:11:02.237Z,19.00
2023-05-29T16:13:33.863Z,18.70
2023-05-29T16:16:01.077Z,18.50
2023-05-29T16:18:27.896Z,18.50
2023-05-29T16:20:55.100Z,18.70
2023-05-29T16:23:22.001Z,18.60
2023-05-29T16:25:48.956Z,18.60
2023-05-29T16:28:15.938Z,18.30
2023-05-29T16:30:43.221Z,18.50
2023-05-29T16:33:10.288Z,18.30
2023-05-29T16:35:37.222Z,18.70
2023-05-29T16:38:04.225Z,18.30
2023-05-29T16:40:30.993Z,18.30
2023-05-29T16:42:57.786Z,18.30
2023-05-29T16:45:24.912Z,18.10
2023-05-29T16:47:53.136Z,18.30
2023-05-29T16:50:24.224Z,18.20
2023-05-29T16:52:51.659Z,18.00
2023-05-29T16:55:18.548Z,18.10
2023-05-29T16:57:45.998Z,18.00
2023-05-29T17:00:13.802Z,18.00
2023-05-29T17:02:40.849Z,18.10
2023-05-29T17:05:08.863Z,18.00
2023-05-29T17:07:35.936Z,17.80
2023-05-29T17:10:02.765Z,17.80
2023-05-29T17:12:29.690Z,17.90
2023-05-29T17:14:56.666Z,17.70
2023-05-29T17:17:23.697Z,17.60
2023-05-29T17:19:50.655Z,17.70
2023-05-29T17:22:17.581Z,17.70
2023-05-29T17:24:45.202Z,17.70
2023-05-29T17:27:12.150Z,17.90
2023-05-29T17:29:39.020Z,17.60
2023-05-29T17:32:10.754Z,17.60
2023-05-29T17:34:38.183Z,17.40
2023-05-29T17:37:05.643Z,17.20
2023-05-29T17:39:32.922Z,17.40
2023-05-29T17:41:59.737Z,17.50
2023-05-29T17:44:27.003Z,17.60
2023-05-29T17:46:54.700Z,17.30
2023-05-29T17:49:21.698Z,17.60
2023-05-29T17:51:48.513Z,17.30
2023-05-29T17:54:15.284Z,17.30
2023-05-29T17:56:42.135Z,17.50
2023-05-29T17:59:09.045Z,17.60
2023-05-29T18:01:35.975Z,17.60
2023-05-29T18:04:04.340Z,17.60
2023-05-29T18:06:32.383Z,17.20
2023-05-29T18:08:59.405Z,16.90
2023-05-29T18:11:27.318Z,16.80
2023-05-29T18:13:54.306Z,16.80
2023-05-29T18:16:21.394Z,17.00
2023-05-29T18:18:48.427Z,16.70
2023-05-29T18:21:15.291Z,16.60
2023-05-29T18:23:44.629Z,16.40
2023-05-29T18:26:11.602Z,16.40
2023-05-29T18:28:39.125Z,16.50
2023-05-29T18:31:06.178Z,16.50
2023-05-29T18:33:34.238Z,16.60
2023-05-29T18:36:01.236Z,16.20
2023-05-29T18:38:28.029Z,16.30
2023-05-29T18:40:55.029Z,16.30
2023-05-29T18:43:21.964Z,16.20
2023-05-29T18:45:48.913Z,16.00
2023-05-29T18:48:15.876Z,15.80
2023-05-29T18:50:42.691Z,15.90
2023-05-29T18:53:09.659Z,16.00
2023-05-29T18:55:36.525Z,15.80
2023-05-29T18:58:03.879Z,15.70
2023-05-29T19:00:31.981Z,15.80
2023-05-29T19:02:59.032Z,15.90
2023-05-29T19:05:26.160Z,15.50
2023-05-29T19:07:55.586Z,15.70
2023-05-29T19:10:22.557Z,15.80
2023-05-29T19:12:49.490Z,15.60
2023-05-29T19:15:16.412Z,15.50
2023-05-29T19:17:43.618Z,15.50
2023-05-29T19:20:11.648Z,15.40
2023-05-29T19:22:38.646Z,15.40
2023-05-29T19:25:06.998Z,15.40
2023-05-29T19:27:33.992Z,15.60
2023-05-29T19:30:01.022Z,15.30
2023-05-29T19:32:28.294Z,15.10
2023-05-29T19:34:56.428Z,15.00
2023-05-29T19:37:23.495Z,14.90
2023-05-29T19:39:55.020Z,14.90
2023-05-29T19:42:24.178Z,14.70
2023-05-29T19:44:51.458Z,14.70
2023-05-29T19:47:18.328Z,14.60
2023-05-29T19:49:45.466Z,14.50
2023-05-29T19:52:12.373Z,14.50
2023-05-29T19:54:39.256Z,14.50
2023-05-29T19:57:10.236Z,14.40
2023-05-29T19:59:38.462Z,14.40
2023-05-29T20:02:06.709Z,14.40
2023-05-29T20:04:37.750Z,14.30
2023-05-29T20:07:05.027Z,14.10
2023-05-29T20:09:31.885Z,14.00
2023-05-29T20:11:58.767Z,14.20
2023-05-29T20:14:25.894Z,14.10
2023-05-29T20:16:53.000Z,14.10
2023-05-29T20:19:20.470Z,13.90
2023-05-29T20:21:47.381Z,13.80
2023-05-29T20:24:14.299Z,13.70
2023-05-29T20:26:41.374Z,13.80
2023-05-29T20:29:08.159Z,13.80
2023-05-29T20:31:35.110Z,13.80
2023-05-29T20:34:02.050Z,13.60
2023-05-29T20:36:31.135Z,13.70
2023-05-29T20:38:59.643Z,13.50
2023-05-29T20:41:26.703Z,13.50
2023-05-29T20:43:54.644Z,13.50
2023-05-29T20:46:23.321Z,13.50
2023-05-29T20:48:50.278Z,13.50
2023-05-29T20:51:17.439Z,13.40
2023-05-29T20:53:44.365Z,13.40
2023-05-29T20:56:12.209Z,13.30
2023-05-29T20:58:39.434Z,13.20
2023-05-29T21:01:06.240Z,13.30
2023-05-29T21:03:33.217Z,13.20
2023-05-29T21:06:01.109Z,13.20
2023-05-29T21:08:27.976Z,13.20
2023-05-29T21:10:54.820Z,13.20
2023-05-29T21:13:22.689Z,13.00
2023-05-29T21:15:52.668Z,13.00
2023-05-29T21:18:19.670Z,13.00
2023-05-29T21:20:47.522Z,12.90
2023-05-29T21:23:15.103Z,12.90
2023-05-29T21:25:42.904Z,12.90
2023-05-29T21:28:09.881Z,12.90
2023-05-29T21:30:37.199Z,12.90
2023-05-29T21:33:07.161Z,12.70
2023-05-29T21:35:34.220Z,12.80
2023-05-29T21:38:01.316Z,12.70
2023-05-29T21:40:28.080Z,12.70
2023-05-29T21:42:57.217Z,12.60
2023-05-29T21:45:24.325Z,12.60
2023-05-29T21:47:51.807Z,12.50
2023-05-29T21:50:19.514Z,12.50
2023-05-29T21:52:47.428Z,12.50
2023-05-29T21:55:14.456Z,12.40
2023-05-29T21:57:41.510Z,12.40
2023-05-29T22:00:11.004Z,12.40
2023-05-29T22:02:38.063Z,12.30
2023-05-29T22:05:07.215Z,12.30
2023-05-29T22:07:34.226Z,12.30
2023-05-29T22:10:01.972Z,12.20
2023-05-29T22:12:29.456Z,12.20
2023-05-29T22:14:56.338Z,12.20
2023-05-29T22:17:23.246Z,12.20
2023-05-29T22:19:50.030Z,12.20
2023-05-29T22:22:17.178Z,12.10
2023-05-29T22:24:45.545Z,12.10
2023-05-29T22:27:12.461Z,12.10
2023-05-29T22:29:39.253Z,12.00
2023-05-29T22:32:06.841Z,12.00
2023-05-29T22:34:33.911Z,12.00
2023-05-29T22:37:00.776Z,11.90
2023-05-29T22:39:27.599Z,11.90
2023-05-29T22:41:55.295Z,11.90
2023-05-29T22:44:22.120Z,11.80
2023-05-29T22:46:48.952Z,11.90
2023-05-29T22:49:15.861Z,11.90
2023-05-29T22:51:45.202Z,11.80
2023-05-29T22:54:12.039Z,11.90
2023-05-29T22:56:38.917Z,11.80
2023-05-29T22:59:05.729Z,11.80
2023-05-29T23:01:32.779Z,11.80
2023-05-29T23:03:59.643Z,11.80
2023-05-29T23:06:26.473Z,11.70
2023-05-29T23:08:53.336Z,11.70
2023-05-29T23:11:20.882Z,11.70
2023-05-29T23:13:47.712Z,11.70
2023-05-29T23:16:17.722Z,11.60
2023-05-29T23:18:44.598Z,11.70
2023-05-29T23:21:12.013Z,11.60
2023-05-29T23:23:38.891Z,11.60
2023-05-29T23:26:06.196Z,11.50
2023-05-29T23:28:33.138Z,11.50
2023-05-29T23:31:00.949Z,11.50
2023-05-29T23:33:28.482Z,11.50
2023-05-29T23:35:55.417Z,11.40
2023-05-29T23:38:22.191Z,11.40
2023-05-29T23:40:49.023Z,11.40
2023-05-29T23:43:15.934Z,11.40
2023-05-29T23:45:42.883Z,11.30
2023-05-29T23:48:09.746Z,11.40
2023-05-29T23:50:37.082Z,11.40
2023-05-29T23:53:04.063Z,11.40
2023-05-29T23:55:33.676Z,11.30
2023-05-29T23:58:01.573Z,11.30
